sensor_id;sensor_type;location;lat;lon;timestamp;temperature;humidity
19755;DHT22;10036;47.812;9.274;2023-07-29T00:01:19;17.50;99.90
19755;DHT22;10036;47.812;9.274;2023-07-29T00:03:46;17.50;99.90
19755;DHT22;10036;47.812;9.274;2023-07-29T00:06:13;17.50;99.90
19755;DHT22;10036;47.812;9.274;2023-07-29T00:08:40;17.70;99.90
19755;DHT22;10036;47.812;9.274;2023-07-29T00:11:06;17.70;99.90
19755;DHT22;10036;47.812;9.274;2023-07-29T00:13:35;17.70;99.90
19755;DHT22;10036;47.812;9.274;2023-07-29T00:16:01;17.80;99.90
19755;DHT22;10036;47.812;9.274;2023-07-29T00:18:28;17.70;99.90
19755;DHT22;10036;47.812;9.274;2023-07-29T00:20:55;17.70;99.90
19755;DHT22;10036;47.812;9.274;2023-07-29T00:23:23;17.70;99.90
19755;DHT22;10036;47.812;9.274;2023-07-29T00:25:50;17.70;99.90
19755;DHT22;10036;47.812;9.274;2023-07-29T00:28:17;17.80;99.90
19755;DHT22;10036;47.812;9.274;2023-07-29T00:30:45;17.80;99.90
19755;DHT22;10036;47.812;9.274;2023-07-29T00:33:12;17.70;99.90
19755;DHT22;10036;47.812;9.274;2023-07-29T00:35:38;17.70;99.90
19755;DHT22;10036;47.812;9.274;2023-07-29T00:38:05;17.70;99.90
19755;DHT22;10036;47.812;9.274;2023-07-29T00:40:35;17.70;99.90
19755;DHT22;10036;47.812;9.274;2023-07-29T00:43:02;17.80;99.90
19755;DHT22;10036;47.812;9.274;2023-07-29T00:45:29;17.80;99.90
19755;DHT22;10036;47.812;9.274;2023-07-29T00:47:58;17.70;99.90
19755;DHT22;10036;47.812;9.274;2023-07-29T00:50:26;17.60;99.90
19755;DHT22;10036;47.812;9.274;2023-07-29T00:52:54;17.50;99.90
19755;DHT22;10036;47.812;9.274;2023-07-29T00:55:21;17.30;99.90
19755;DHT22;10036;47.812;9.274;2023-07-29T00:57:48;17.20;99.90
19755;DHT22;10036;47.812;9.274;2023-07-29T01:00:17;17.30;99.90
19755;DHT22;10036;47.812;9.274;2023-07-29T01:02:44;17.30;99.90
19755;DHT22;10036;47.812;9.274;2023-07-29T01:05:14;17.30;99.90
19755;DHT22;10036;47.812;9.274;2023-07-29T01:07:47;17.30;99.90
19755;DHT22;10036;47.812;9.274;2023-07-29T01:10:22;17.30;99.90
19755;DHT22;10036;47.812;9.274;2023-07-29T01:12:54;17.20;99.90
19755;DHT22;10036;47.812;9.274;2023-07-29T01:15:31;17.30;99.90
19755;DHT22;10036;47.812;9.274;2023-07-29T01:18:02;17.40;99.90
19755;DHT22;10036;47.812;9.274;2023-07-29T01:20:34;17.40;99.90
19755;DHT22;10036;47.812;9.274;2023-07-29T01:23:02;17.40;99.90
19755;DHT22;10036;47.812;9.274;2023-07-29T01:25:30;17.40;99.90
19755;DHT22;10036;47.812;9.274;2023-07-29T01:27:57;17.40;99.90
19755;DHT22;10036;47.812;9.274;2023-07-29T01:30:28;17.30;99.90
19755;DHT22;10036;47.812;9.274;2023-07-29T01:33:01;17.40;99.90
19755;DHT22;10036;47.812;9.274;2023-07-29T01:35:33;17.40;99.90
19755;DHT22;10036;47.812;9.274;2023-07-29T01:38:04;17.40;99.90
19755;DHT22;10036;47.812;9.274;2023-07-29T01:40:33;17.40;99.90
19755;DHT22;10036;47.812;9.274;2023-07-29T01:43:00;17.50;99.90
19755;DHT22;10036;47.812;9.274;2023-07-29T01:45:28;17.30;99.90
19755;DHT22;10036;47.812;9.274;2023-07-29T01:47:57;17.40;99.90
19755;DHT22;10036;47.812;9.274;2023-07-29T01:50:24;17.40;99.90
19755;DHT22;10036;47.812;9.274;2023-07-29T01:52:50;17.40;99.90
19755;DHT22;10036;47.812;9.274;2023-07-29T01:55:17;17.40;99.90
19755;DHT22;10036;47.812;9.274;2023-07-29T01:57:45;17.30;99.90
19755;DHT22;10036;47.812;9.274;2023-07-29T02:00:12;17.20;99.90
19755;DHT22;10036;47.812;9.274;2023-07-29T02:02:39;17.30;99.90
19755;DHT22;10036;47.812;9.274;2023-07-29T02:05:06;17.10;99.90
19755;DHT22;10036;47.812;9.274;2023-07-29T02:07:33;17.00;99.90
19755;DHT22;10036;47.812;9.274;2023-07-29T02:10:00;17.00;99.90
19755;DHT22;10036;47.812;9.274;2023-07-29T02:12:27;17.20;99.90
19755;DHT22;10036;47.812;9.274;2023-07-29T02:14:55;17.20;99.90
19755;DHT22;10036;47.812;9.274;2023-07-29T02:17:22;17.30;99.90
19755;DHT22;10036;47.812;9.274;2023-07-29T02:19:49;17.30;99.90
19755;DHT22;10036;47.812;9.274;2023-07-29T02:22:17;17.30;99.90
19755;DHT22;10036;47.812;9.274;2023-07-29T02:24:44;17.10;99.90
19755;DHT22;10036;47.812;9.274;2023-07-29T02:27:11;17.00;99.90
19755;DHT22;10036;47.812;9.274;2023-07-29T02:29:37;17.00;99.90
19755;DHT22;10036;47.812;9.274;2023-07-29T02:32:06;16.90;99.90
19755;DHT22;10036;47.812;9.274;2023-07-29T02:34:32;17.00;99.90
19755;DHT22;10036;47.812;9.274;2023-07-29T02:37:00;16.90;99.90
19755;DHT22;10036;47.812;9.274;2023-07-29T02:39:26;16.90;99.90
19755;DHT22;10036;47.812;9.274;2023-07-29T02:41:53;16.90;99.90
19755;DHT22;10036;47.812;9.274;2023-07-29T02:44:21;17.10;99.90
19755;DHT22;10036;47.812;9.274;2023-07-29T02:46:48;17.10;99.90
19755;DHT22;10036;47.812;9.274;2023-07-29T02:49:16;17.10;99.90
19755;DHT22;10036;47.812;9.274;2023-07-29T02:51:43;17.00;99.90
19755;DHT22;10036;47.812;9.274;2023-07-29T02:54:10;17.10;99.90
19755;DHT22;10036;47.812;9.274;2023-07-29T02:56:37;17.00;99.90
19755;DHT22;10036;47.812;9.274;2023-07-29T02:59:04;16.90;99.90
19755;DHT22;10036;47.812;9.274;2023-07-29T03:01:30;16.80;99.90
19755;DHT22;10036;47.812;9.274;2023-07-29T03:03:57;16.60;99.90
19755;DHT22;10036;47.812;9.274;2023-07-29T03:06:26;16.60;99.90
19755;DHT22;10036;47.812;9.274;2023-07-29T03:08:52;16.80;99.90
19755;DHT22;10036;47.812;9.274;2023-07-29T03:11:19;16.80;99.90
19755;DHT22;10036;47.812;9.274;2023-07-29T03:13:46;16.90;99.90
19755;DHT22;10036;47.812;9.274;2023-07-29T03:16:14;17.00;99.90
19755;DHT22;10036;47.812;9.274;2023-07-29T03:18:42;17.00;99.90
19755;DHT22;10036;47.812;9.274;2023-07-29T03:21:10;17.00;99.90
19755;DHT22;10036;47.812;9.274;2023-07-29T03:23:38;17.00;99.90
19755;DHT22;10036;47.812;9.274;2023-07-29T03:26:05;16.80;99.90
19755;DHT22;10036;47.812;9.274;2023-07-29T03:28:37;16.80;99.90
19755;DHT22;10036;47.812;9.274;2023-07-29T03:31:04;16.70;99.90
19755;DHT22;10036;47.812;9.274;2023-07-29T03:33:31;16.90;99.90
19755;DHT22;10036;47.812;9.274;2023-07-29T03:35:58;16.90;99.90
19755;DHT22;10036;47.812;9.274;2023-07-29T03:38:25;16.90;99.90
19755;DHT22;10036;47.812;9.274;2023-07-29T03:40:53;17.00;99.90
19755;DHT22;10036;47.812;9.274;2023-07-29T03:43:20;16.90;99.90
19755;DHT22;10036;47.812;9.274;2023-07-29T03:45:47;16.80;99.90
19755;DHT22;10036;47.812;9.274;2023-07-29T03:48:13;16.80;99.90
19755;DHT22;10036;47.812;9.274;2023-07-29T03:50:41;16.90;99.90
19755;DHT22;10036;47.812;9.274;2023-07-29T03:53:08;16.80;99.90
19755;DHT22;10036;47.812;9.274;2023-07-29T03:55:35;16.90;99.90
19755;DHT22;10036;47.812;9.274;2023-07-29T03:58:03;16.90;99.90
19755;DHT22;10036;47.812;9.274;2023-07-29T04:00:30;17.00;99.90
19755;DHT22;10036;47.812;9.274;2023-07-29T04:02:57;17.00;99.90
19755;DHT22;10036;47.812;9.274;2023-07-29T04:05:24;16.90;99.90
19755;DHT22;10036;47.812;9.274;2023-07-29T04:07:51;17.00;99.90
19755;DHT22;10036;47.812;9.274;2023-07-29T04:10:19;17.00;99.90
19755;DHT22;10036;47.812;9.274;2023-07-29T04:12:46;16.70;99.90
19755;DHT22;10036;47.812;9.274;2023-07-29T04:15:14;16.60;99.90
19755;DHT22;10036;47.812;9.274;2023-07-29T04:17:41;16.60;99.90
19755;DHT22;10036;47.812;9.274;2023-07-29T04:20:09;16.50;99.90
19755;DHT22;10036;47.812;9.274;2023-07-29T04:22:36;16.50;99.90
19755;DHT22;10036;47.812;9.274;2023-07-29T04:25:04;16.60;99.90
19755;DHT22;10036;47.812;9.274;2023-07-29T04:27:31;16.70;99.90
19755;DHT22;10036;47.812;9.274;2023-07-29T04:29:58;16.80;99.90
19755;DHT22;10036;47.812;9.274;2023-07-29T04:32:26;16.80;99.90
19755;DHT22;10036;47.812;9.274;2023-07-29T04:34:53;16.80;99.90
19755;DHT22;10036;47.812;9.274;2023-07-29T04:37:19;16.80;99.90
19755;DHT22;10036;47.812;9.274;2023-07-29T04:39:46;16.80;99.90
19755;DHT22;10036;47.812;9.274;2023-07-29T04:42:13;16.90;99.90
19755;DHT22;10036;47.812;9.274;2023-07-29T04:44:40;17.00;99.90
19755;DHT22;10036;47.812;9.274;2023-07-29T04:47:07;17.10;99.90
19755;DHT22;10036;47.812;9.274;2023-07-29T04:49:36;17.10;99.90
19755;DHT22;10036;47.812;9.274;2023-07-29T04:52:03;17.00;99.90
19755;DHT22;10036;47.812;9.274;2023-07-29T04:54:29;17.00;99.90
19755;DHT22;10036;47.812;9.274;2023-07-29T04:56:56;16.90;99.90
19755;DHT22;10036;47.812;9.274;2023-07-29T04:59:23;16.90;99.90
19755;DHT22;10036;47.812;9.274;2023-07-29T05:01:50;16.90;99.90
19755;DHT22;10036;47.812;9.274;2023-07-29T05:04:17;16.80;99.90
19755;DHT22;10036;47.812;9.274;2023-07-29T05:06:45;16.80;99.90
19755;DHT22;10036;47.812;9.274;2023-07-29T05:09:15;16.80;99.90
19755;DHT22;10036;47.812;9.274;2023-07-29T05:11:43;16.80;99.90
19755;DHT22;10036;47.812;9.274;2023-07-29T05:14:11;16.90;99.90
19755;DHT22;10036;47.812;9.274;2023-07-29T05:16:37;16.90;99.90
19755;DHT22;10036;47.812;9.274;2023-07-29T05:19:04;17.00;99.90
19755;DHT22;10036;47.812;9.274;2023-07-29T05:21:31;17.10;99.90
19755;DHT22;10036;47.812;9.274;2023-07-29T05:23:59;17.20;99.90
19755;DHT22;10036;47.812;9.274;2023-07-29T05:26:26;17.20;99.90
19755;DHT22;10036;47.812;9.274;2023-07-29T05:28:53;17.30;99.90
19755;DHT22;10036;47.812;9.274;2023-07-29T05:31:20;17.30;99.90
19755;DHT22;10036;47.812;9.274;2023-07-29T05:33:47;17.40;99.90
19755;DHT22;10036;47.812;9.274;2023-07-29T05:36:14;17.60;99.90
19755;DHT22;10036;47.812;9.274;2023-07-29T05:38:41;17.70;99.90
19755;DHT22;10036;47.812;9.274;2023-07-29T05:41:09;17.70;99.90
19755;DHT22;10036;47.812;9.274;2023-07-29T05:43:36;17.80;99.90
19755;DHT22;10036;47.812;9.274;2023-07-29T05:46:02;17.80;99.90
19755;DHT22;10036;47.812;9.274;2023-07-29T05:48:29;17.80;99.90
19755;DHT22;10036;47.812;9.274;2023-07-29T05:50:56;17.90;99.90
19755;DHT22;10036;47.812;9.274;2023-07-29T05:53:23;18.00;99.90
19755;DHT22;10036;47.812;9.274;2023-07-29T05:55:50;18.00;99.90
19755;DHT22;10036;47.812;9.274;2023-07-29T05:58:18;18.00;99.90
19755;DHT22;10036;47.812;9.274;2023-07-29T06:00:45;18.00;99.90
19755;DHT22;10036;47.812;9.274;2023-07-29T06:03:12;17.90;99.90
19755;DHT22;10036;47.812;9.274;2023-07-29T06:05:39;17.90;99.90
19755;DHT22;10036;47.812;9.274;2023-07-29T06:08:06;17.90;99.90
19755;DHT22;10036;47.812;9.274;2023-07-29T06:10:34;18.00;99.90
19755;DHT22;10036;47.812;9.274;2023-07-29T06:13:00;18.10;99.90
19755;DHT22;10036;47.812;9.274;2023-07-29T06:15:29;18.20;99.90
19755;DHT22;10036;47.812;9.274;2023-07-29T06:17:55;18.30;99.90
19755;DHT22;10036;47.812;9.274;2023-07-29T06:20:22;18.40;99.90
19755;DHT22;10036;47.812;9.274;2023-07-29T06:22:49;18.30;99.90
19755;DHT22;10036;47.812;9.274;2023-07-29T06:25:16;18.20;99.90
19755;DHT22;10036;47.812;9.274;2023-07-29T06:27:43;18.30;99.90
19755;DHT22;10036;47.812;9.274;2023-07-29T06:30:10;18.30;99.90
19755;DHT22;10036;47.812;9.274;2023-07-29T06:32:38;18.40;99.90
19755;DHT22;10036;47.812;9.274;2023-07-29T06:35:06;18.40;99.90
19755;DHT22;10036;47.812;9.274;2023-07-29T06:37:33;18.50;99.90
19755;DHT22;10036;47.812;9.274;2023-07-29T06:39:59;18.50;99.90
19755;DHT22;10036;47.812;9.274;2023-07-29T06:42:26;18.50;99.90
19755;DHT22;10036;47.812;9.274;2023-07-29T06:44:53;18.50;99.90
19755;DHT22;10036;47.812;9.274;2023-07-29T06:47:20;18.60;99.90
19755;DHT22;10036;47.812;9.274;2023-07-29T06:49:48;18.60;99.90
19755;DHT22;10036;47.812;9.274;2023-07-29T06:52:15;18.70;99.90
19755;DHT22;10036;47.812;9.274;2023-07-29T06:54:42;18.80;99.90
19755;DHT22;10036;47.812;9.274;2023-07-29T06:57:08;18.90;99.90
19755;DHT22;10036;47.812;9.274;2023-07-29T06:59:35;19.00;99.90
19755;DHT22;10036;47.812;9.274;2023-07-29T07:02:03;19.10;99.90
19755;DHT22;10036;47.812;9.274;2023-07-29T07:04:29;19.10;99.90
19755;DHT22;10036;47.812;9.274;2023-07-29T07:06:58;19.30;99.90
19755;DHT22;10036;47.812;9.274;2023-07-29T07:09:24;19.40;99.90
19755;DHT22;10036;47.812;9.274;2023-07-29T07:11:51;19.50;99.90
19755;DHT22;10036;47.812;9.274;2023-07-29T07:14:19;19.60;99.90
19755;DHT22;10036;47.812;9.274;2023-07-29T07:16:45;19.50;99.90
19755;DHT22;10036;47.812;9.274;2023-07-29T07:19:12;19.50;99.90
19755;DHT22;10036;47.812;9.274;2023-07-29T07:21:39;19.60;99.90
19755;DHT22;10036;47.812;9.274;2023-07-29T07:24:07;19.70;99.90
19755;DHT22;10036;47.812;9.274;2023-07-29T07:26:34;19.80;99.90
19755;DHT22;10036;47.812;9.274;2023-07-29T07:29:01;20.00;99.90
19755;DHT22;10036;47.812;9.274;2023-07-29T07:31:28;20.00;99.90
19755;DHT22;10036;47.812;9.274;2023-07-29T07:33:55;20.00;99.90
19755;DHT22;10036;47.812;9.274;2023-07-29T07:36:22;20.00;99.90
19755;DHT22;10036;47.812;9.274;2023-07-29T07:38:48;20.00;99.90
19755;DHT22;10036;47.812;9.274;2023-07-29T07:41:17;20.00;99.90
19755;DHT22;10036;47.812;9.274;2023-07-29T07:43:43;20.10;99.90
19755;DHT22;10036;47.812;9.274;2023-07-29T07:46:10;20.10;99.90
19755;DHT22;10036;47.812;9.274;2023-07-29T07:48:38;20.20;99.90
19755;DHT22;10036;47.812;9.274;2023-07-29T07:51:12;20.20;99.90
19755;DHT22;10036;47.812;9.274;2023-07-29T07:53:39;20.30;99.90
19755;DHT22;10036;47.812;9.274;2023-07-29T07:56:06;20.40;99.90
19755;DHT22;10036;47.812;9.274;2023-07-29T07:58:34;20.50;99.90
19755;DHT22;10036;47.812;9.274;2023-07-29T08:01:02;20.50;99.90
19755;DHT22;10036;47.812;9.274;2023-07-29T08:03:29;20.70;99.90
19755;DHT22;10036;47.812;9.274;2023-07-29T08:05:56;20.70;99.90
19755;DHT22;10036;47.812;9.274;2023-07-29T08:08:23;20.70;99.90
19755;DHT22;10036;47.812;9.274;2023-07-29T08:10:50;20.70;99.90
19755;DHT22;10036;47.812;9.274;2023-07-29T08:13:16;20.60;99.90
19755;DHT22;10036;47.812;9.274;2023-07-29T08:15:47;20.60;99.90
19755;DHT22;10036;47.812;9.274;2023-07-29T08:18:14;20.60;99.90
19755;DHT22;10036;47.812;9.274;2023-07-29T08:20:50;20.70;99.90
19755;DHT22;10036;47.812;9.274;2023-07-29T08:23:17;20.70;99.90
19755;DHT22;10036;47.812;9.274;2023-07-29T08:25:44;20.70;99.90
19755;DHT22;10036;47.812;9.274;2023-07-29T08:28:11;20.80;99.90
19755;DHT22;10036;47.812;9.274;2023-07-29T08:30:38;20.90;99.90
19755;DHT22;10036;47.812;9.274;2023-07-29T08:33:06;20.90;99.90
19755;DHT22;10036;47.812;9.274;2023-07-29T08:35:33;21.00;99.90
19755;DHT22;10036;47.812;9.274;2023-07-29T08:37:59;21.10;99.90
19755;DHT22;10036;47.812;9.274;2023-07-29T08:40:29;21.10;99.90
19755;DHT22;10036;47.812;9.274;2023-07-29T08:42:58;21.10;99.90
19755;DHT22;10036;47.812;9.274;2023-07-29T08:45:31;21.20;99.90
19755;DHT22;10036;47.812;9.274;2023-07-29T08:48:02;21.40;99.90
19755;DHT22;10036;47.812;9.274;2023-07-29T08:50:35;21.50;99.90
19755;DHT22;10036;47.812;9.274;2023-07-29T08:53:03;21.50;99.90
19755;DHT22;10036;47.812;9.274;2023-07-29T08:55:31;21.60;99.90
19755;DHT22;10036;47.812;9.274;2023-07-29T08:57:59;21.60;99.90
19755;DHT22;10036;47.812;9.274;2023-07-29T09:00:27;21.70;99.90
19755;DHT22;10036;47.812;9.274;2023-07-29T09:02:54;21.90;99.90
19755;DHT22;10036;47.812;9.274;2023-07-29T09:05:23;22.00;99.90
19755;DHT22;10036;47.812;9.274;2023-07-29T09:07:51;22.10;99.90
19755;DHT22;10036;47.812;9.274;2023-07-29T09:10:22;22.10;99.90
19755;DHT22;10036;47.812;9.274;2023-07-29T09:12:49;22.00;99.90
19755;DHT22;10036;47.812;9.274;2023-07-29T09:15:27;22.10;99.90
19755;DHT22;10036;47.812;9.274;2023-07-29T09:17:55;22.10;99.90
19755;DHT22;10036;47.812;9.274;2023-07-29T09:20:26;22.20;99.90
19755;DHT22;10036;47.812;9.274;2023-07-29T09:22:57;22.20;99.90
19755;DHT22;10036;47.812;9.274;2023-07-29T09:25:25;22.30;99.90
19755;DHT22;10036;47.812;9.274;2023-07-29T09:27:52;22.30;99.90
19755;DHT22;10036;47.812;9.274;2023-07-29T09:30:20;22.40;99.90
19755;DHT22;10036;47.812;9.274;2023-07-29T09:32:47;22.60;99.90
19755;DHT22;10036;47.812;9.274;2023-07-29T09:35:19;22.50;99.90
19755;DHT22;10036;47.812;9.274;2023-07-29T09:37:46;22.80;99.90
19755;DHT22;10036;47.812;9.274;2023-07-29T09:40:15;22.70;99.90
19755;DHT22;10036;47.812;9.274;2023-07-29T09:42:48;22.80;99.90
19755;DHT22;10036;47.812;9.274;2023-07-29T09:45:20;22.90;99.90
19755;DHT22;10036;47.812;9.274;2023-07-29T09:47:47;23.00;99.90
19755;DHT22;10036;47.812;9.274;2023-07-29T09:50:15;23.00;99.90
19755;DHT22;10036;47.812;9.274;2023-07-29T09:52:42;23.00;99.90
19755;DHT22;10036;47.812;9.274;2023-07-29T09:55:10;23.10;99.90
19755;DHT22;10036;47.812;9.274;2023-07-29T09:57:39;23.10;99.90
19755;DHT22;10036;47.812;9.274;2023-07-29T10:00:07;23.10;99.90
19755;DHT22;10036;47.812;9.274;2023-07-29T10:02:37;23.20;99.90
19755;DHT22;10036;47.812;9.274;2023-07-29T10:05:06;23.30;99.90
19755;DHT22;10036;47.812;9.274;2023-07-29T10:07:33;23.30;99.90
19755;DHT22;10036;47.812;9.274;2023-07-29T10:10:02;23.40;99.90
19755;DHT22;10036;47.812;9.274;2023-07-29T10:12:31;23.60;99.90
19755;DHT22;10036;47.812;9.274;2023-07-29T10:15:02;23.60;99.90
19755;DHT22;10036;47.812;9.274;2023-07-29T10:17:29;23.70;99.90
19755;DHT22;10036;47.812;9.274;2023-07-29T10:19:57;23.60;99.90
19755;DHT22;10036;47.812;9.274;2023-07-29T10:22:25;23.60;99.90
19755;DHT22;10036;47.812;9.274;2023-07-29T10:24:56;23.60;99.90
19755;DHT22;10036;47.812;9.274;2023-07-29T10:27:25;23.60;99.90
19755;DHT22;10036;47.812;9.274;2023-07-29T10:29:55;23.70;99.90
19755;DHT22;10036;47.812;9.274;2023-07-29T10:32:25;23.90;99.90
19755;DHT22;10036;47.812;9.274;2023-07-29T10:34:53;24.00;99.90
19755;DHT22;10036;47.812;9.274;2023-07-29T10:37:20;24.00;99.90
19755;DHT22;10036;47.812;9.274;2023-07-29T10:39:53;24.00;99.90
19755;DHT22;10036;47.812;9.274;2023-07-29T10:42:22;24.30;99.90
19755;DHT22;10036;47.812;9.274;2023-07-29T10:44:50;24.40;99.90
19755;DHT22;10036;47.812;9.274;2023-07-29T10:47:19;24.60;99.90
19755;DHT22;10036;47.812;9.274;2023-07-29T10:49:50;24.90;99.90
19755;DHT22;10036;47.812;9.274;2023-07-29T10:52:29;25.10;99.90
19755;DHT22;10036;47.812;9.274;2023-07-29T10:54:56;25.20;99.90
19755;DHT22;10036;47.812;9.274;2023-07-29T10:57:31;25.20;99.90
19755;DHT22;10036;47.812;9.274;2023-07-29T10:59:59;24.90;99.90
19755;DHT22;10036;47.812;9.274;2023-07-29T11:02:29;24.90;99.90
19755;DHT22;10036;47.812;9.274;2023-07-29T11:04:59;25.00;99.90
19755;DHT22;10036;47.812;9.274;2023-07-29T11:07:26;25.10;99.90
19755;DHT22;10036;47.812;9.274;2023-07-29T11:09:55;25.10;99.90
19755;DHT22;10036;47.812;9.274;2023-07-29T11:12:39;24.80;99.90
19755;DHT22;10036;47.812;9.274;2023-07-29T11:15:19;24.80;99.90
19755;DHT22;10036;47.812;9.274;2023-07-29T11:17:47;24.90;99.90
19755;DHT22;10036;47.812;9.274;2023-07-29T11:20:17;24.90;99.90
19755;DHT22;10036;47.812;9.274;2023-07-29T11:22:45;25.10;99.90
19755;DHT22;10036;47.812;9.274;2023-07-29T11:25:13;25.10;99.90
19755;DHT22;10036;47.812;9.274;2023-07-29T11:27:40;25.20;99.90
19755;DHT22;10036;47.812;9.274;2023-07-29T11:30:08;25.20;99.90
19755;DHT22;10036;47.812;9.274;2023-07-29T11:32:36;25.30;99.90
19755;DHT22;10036;47.812;9.274;2023-07-29T11:35:04;25.40;99.90
19755;DHT22;10036;47.812;9.274;2023-07-29T11:37:34;25.50;99.90
19755;DHT22;10036;47.812;9.274;2023-07-29T11:40:01;25.60;99.90
19755;DHT22;10036;47.812;9.274;2023-07-29T11:42:28;25.60;99.90
19755;DHT22;10036;47.812;9.274;2023-07-29T11:44:58;25.50;99.90
19755;DHT22;10036;47.812;9.274;2023-07-29T11:47:24;25.50;99.90
19755;DHT22;10036;47.812;9.274;2023-07-29T11:49:51;25.40;99.90
19755;DHT22;10036;47.812;9.274;2023-07-29T11:52:18;25.50;99.90
19755;DHT22;10036;47.812;9.274;2023-07-29T11:54:48;25.70;99.90
19755;DHT22;10036;47.812;9.274;2023-07-29T11:57:16;25.70;99.90
19755;DHT22;10036;47.812;9.274;2023-07-29T11:59:45;25.60;99.90
19755;DHT22;10036;47.812;9.274;2023-07-29T12:02:14;25.60;99.90
19755;DHT22;10036;47.812;9.274;2023-07-29T12:04:43;25.70;99.90
19755;DHT22;10036;47.812;9.274;2023-07-29T12:07:13;25.50;99.90
19755;DHT22;10036;47.812;9.274;2023-07-29T12:09:40;25.40;99.90
19755;DHT22;10036;47.812;9.274;2023-07-29T12:12:09;25.40;99.90
19755;DHT22;10036;47.812;9.274;2023-07-29T12:14:36;25.30;99.90
19755;DHT22;10036;47.812;9.274;2023-07-29T12:17:05;25.40;99.90
19755;DHT22;10036;47.812;9.274;2023-07-29T12:19:32;25.50;99.90
19755;DHT22;10036;47.812;9.274;2023-07-29T12:22:00;25.50;99.90
19755;DHT22;10036;47.812;9.274;2023-07-29T12:24:29;25.10;99.90
19755;DHT22;10036;47.812;9.274;2023-07-29T12:26:56;25.20;99.90
19755;DHT22;10036;47.812;9.274;2023-07-29T12:29:25;25.30;99.90
19755;DHT22;10036;47.812;9.274;2023-07-29T12:31:58;25.20;99.90
19755;DHT22;10036;47.812;9.274;2023-07-29T12:34:26;25.00;99.90
19755;DHT22;10036;47.812;9.274;2023-07-29T12:36:54;24.80;99.90
19755;DHT22;10036;47.812;9.274;2023-07-29T12:39:23;24.70;99.90
19755;DHT22;10036;47.812;9.274;2023-07-29T12:41:51;24.50;99.90
19755;DHT22;10036;47.812;9.274;2023-07-29T12:44:18;24.40;99.90
19755;DHT22;10036;47.812;9.274;2023-07-29T12:46:47;23.90;99.90
19755;DHT22;10036;47.812;9.274;2023-07-29T12:49:14;23.00;99.90
19755;DHT22;10036;47.812;9.274;2023-07-29T12:51:40;19.90;99.90
19755;DHT22;10036;47.812;9.274;2023-07-29T12:54:07;18.60;99.90
19755;DHT22;10036;47.812;9.274;2023-07-29T12:56:35;18.60;99.90
19755;DHT22;10036;47.812;9.274;2023-07-29T12:59:02;18.70;99.90
19755;DHT22;10036;47.812;9.274;2023-07-29T13:01:29;18.90;99.90
19755;DHT22;10036;47.812;9.274;2023-07-29T13:03:57;19.10;99.90
19755;DHT22;10036;47.812;9.274;2023-07-29T13:06:24;19.40;99.90
19755;DHT22;10036;47.812;9.274;2023-07-29T13:08:52;19.50;99.90
19755;DHT22;10036;47.812;9.274;2023-07-29T13:11:19;19.70;99.90
19755;DHT22;10036;47.812;9.274;2023-07-29T13:13:46;19.80;99.90
19755;DHT22;10036;47.812;9.274;2023-07-29T13:16:13;19.80;99.90
19755;DHT22;10036;47.812;9.274;2023-07-29T13:18:40;19.80;99.90
19755;DHT22;10036;47.812;9.274;2023-07-29T13:21:08;19.80;99.90
19755;DHT22;10036;47.812;9.274;2023-07-29T13:23:35;20.00;99.90
19755;DHT22;10036;47.812;9.274;2023-07-29T13:26:02;20.10;99.90
19755;DHT22;10036;47.812;9.274;2023-07-29T13:28:28;20.10;99.90
19755;DHT22;10036;47.812;9.274;2023-07-29T13:30:55;20.30;99.90
19755;DHT22;10036;47.812;9.274;2023-07-29T13:33:22;20.30;99.90
19755;DHT22;10036;47.812;9.274;2023-07-29T13:35:49;20.30;99.90
19755;DHT22;10036;47.812;9.274;2023-07-29T13:38:18;20.30;99.90
19755;DHT22;10036;47.812;9.274;2023-07-29T13:40:45;20.30;99.90
19755;DHT22;10036;47.812;9.274;2023-07-29T13:43:13;20.30;99.90
19755;DHT22;10036;47.812;9.274;2023-07-29T13:45:40;20.30;99.90
19755;DHT22;10036;47.812;9.274;2023-07-29T13:48:07;20.40;99.90
19755;DHT22;10036;47.812;9.274;2023-07-29T13:50:34;20.50;99.90
19755;DHT22;10036;47.812;9.274;2023-07-29T13:53:01;20.50;99.90
19755;DHT22;10036;47.812;9.274;2023-07-29T13:55:29;20.40;99.90
19755;DHT22;10036;47.812;9.274;2023-07-29T13:57:56;20.30;99.90
19755;DHT22;10036;47.812;9.274;2023-07-29T14:00:23;20.20;99.90
19755;DHT22;10036;47.812;9.274;2023-07-29T14:02:49;20.20;99.90
19755;DHT22;10036;47.812;9.274;2023-07-29T14:05:16;20.10;99.90
19755;DHT22;10036;47.812;9.274;2023-07-29T14:07:43;20.10;99.90
19755;DHT22;10036;47.812;9.274;2023-07-29T14:10:10;20.00;99.90
19755;DHT22;10036;47.812;9.274;2023-07-29T14:12:38;19.90;99.90
19755;DHT22;10036;47.812;9.274;2023-07-29T14:15:06;19.80;99.90
19755;DHT22;10036;47.812;9.274;2023-07-29T14:17:33;19.80;99.90
19755;DHT22;10036;47.812;9.274;2023-07-29T14:20:00;19.90;99.90
19755;DHT22;10036;47.812;9.274;2023-07-29T14:22:27;19.90;99.90
19755;DHT22;10036;47.812;9.274;2023-07-29T14:24:54;19.90;99.90
19755;DHT22;10036;47.812;9.274;2023-07-29T14:27:21;19.90;99.90
19755;DHT22;10036;47.812;9.274;2023-07-29T14:29:49;20.00;99.90
19755;DHT22;10036;47.812;9.274;2023-07-29T14:32:16;20.10;99.90
19755;DHT22;10036;47.812;9.274;2023-07-29T14:34:43;20.00;99.90
19755;DHT22;10036;47.812;9.274;2023-07-29T14:37:09;19.90;99.90
19755;DHT22;10036;47.812;9.274;2023-07-29T14:39:36;19.90;99.90
19755;DHT22;10036;47.812;9.274;2023-07-29T14:42:04;20.10;99.90
19755;DHT22;10036;47.812;9.274;2023-07-29T14:44:31;20.10;99.90
19755;DHT22;10036;47.812;9.274;2023-07-29T14:46:59;20.20;99.90
19755;DHT22;10036;47.812;9.274;2023-07-29T14:49:26;20.10;99.90
19755;DHT22;10036;47.812;9.274;2023-07-29T14:51:52;20.10;99.90
19755;DHT22;10036;47.812;9.274;2023-07-29T14:54:19;20.20;99.90
19755;DHT22;10036;47.812;9.274;2023-07-29T14:56:46;20.10;99.90
19755;DHT22;10036;47.812;9.274;2023-07-29T14:59:13;20.10;99.90
19755;DHT22;10036;47.812;9.274;2023-07-29T15:01:40;20.10;99.90
19755;DHT22;10036;47.812;9.274;2023-07-29T15:04:08;20.10;99.90
19755;DHT22;10036;47.812;9.274;2023-07-29T15:06:35;20.20;99.90
19755;DHT22;10036;47.812;9.274;2023-07-29T15:09:02;20.20;99.90
19755;DHT22;10036;47.812;9.274;2023-07-29T15:11:29;20.20;99.90
19755;DHT22;10036;47.812;9.274;2023-07-29T15:13:55;20.00;99.90
19755;DHT22;10036;47.812;9.274;2023-07-29T15:16:23;20.10;99.90
19755;DHT22;10036;47.812;9.274;2023-07-29T15:18:50;19.90;99.90
19755;DHT22;10036;47.812;9.274;2023-07-29T15:21:19;19.90;99.90
19755;DHT22;10036;47.812;9.274;2023-07-29T15:23:46;19.80;99.90
19755;DHT22;10036;47.812;9.274;2023-07-29T15:26:13;19.90;99.90
19755;DHT22;10036;47.812;9.274;2023-07-29T15:28:39;19.90;99.90
19755;DHT22;10036;47.812;9.274;2023-07-29T15:31:06;19.90;99.90
19755;DHT22;10036;47.812;9.274;2023-07-29T15:33:33;19.90;99.90